createdAt,value
2019-04-26T00:00:49.281Z,1.60
2019-04-26T00:01:49.409Z,1.10
2019-04-26T00:02:49.550Z,1.00
2019-04-26T00:03:49.675Z,1.00
2019-04-26T00:04:49.820Z,1.10
2019-04-26T00:05:49.945Z,1.00
2019-04-26T00:06:50.083Z,1.60
2019-04-26T00:07:50.215Z,1.10
2019-04-26T00:08:50.347Z,1.30
2019-04-26T00:09:50.476Z,1.10
2019-04-26T00:10:50.612Z,1.10
2019-04-26T00:11:50.753Z,1.30
2019-04-26T00:12:50.874Z,1.20
2019-04-26T00:13:51.008Z,1.20
2019-04-26T00:14:51.144Z,1.10
2019-04-26T00:15:51.276Z,1.10
2019-04-26T00:16:51.406Z,1.00
2019-04-26T00:17:51.537Z,1.20
2019-04-26T00:18:51.667Z,1.20
2019-04-26T00:19:51.797Z,1.10
2019-04-26T00:20:51.945Z,1.00
2019-04-26T00:21:52.068Z,1.20
2019-04-26T00:22:52.197Z,1.10
2019-04-26T00:23:52.325Z,1.50
2019-04-26T00:24:52.455Z,1.40
2019-04-26T00:25:52.590Z,1.20
2019-04-26T00:26:52.720Z,1.40
2019-04-26T00:27:52.859Z,1.30
2019-04-26T00:28:52.982Z,1.50
2019-04-26T00:29:53.118Z,1.20
2019-04-26T00:30:53.261Z,1.20
2019-04-26T00:31:53.410Z,1.10
2019-04-26T00:32:53.513Z,1.00
2019-04-26T00:33:53.637Z,1.10
2019-04-26T00:34:53.773Z,1.20
2019-04-26T00:35:53.909Z,1.20
2019-04-26T00:36:54.035Z,1.20
2019-04-26T00:37:54.179Z,1.40
2019-04-26T00:38:54.298Z,1.30
2019-04-26T00:39:54.427Z,1.30
2019-04-26T00:40:54.577Z,1.50
2019-04-26T00:41:54.712Z,1.50
2019-04-26T00:42:57.522Z,1.30
2019-04-26T00:43:54.972Z,1.30
2019-04-26T00:44:55.104Z,1.20
2019-04-26T00:45:55.235Z,1.50
2019-04-26T00:46:55.363Z,1.50
2019-04-26T00:47:55.505Z,1.30
2019-04-26T00:48:55.629Z,1.10
2019-04-26T00:49:55.761Z,1.20
2019-04-26T00:50:55.897Z,1.20
2019-04-26T00:51:56.020Z,1.20
2019-04-26T00:52:56.202Z,1.20
2019-04-26T00:53:56.294Z,1.00
2019-04-26T00:54:56.433Z,1.20
2019-04-26T00:55:56.558Z,1.10
2019-04-26T00:56:56.691Z,1.10
2019-04-26T00:57:56.849Z,1.20
2019-04-26T00:58:56.964Z,1.30
2019-04-26T00:59:57.097Z,1.10
2019-04-26T01:00:57.231Z,0.90
2019-04-26T01:01:57.371Z,1.00
2019-04-26T01:02:57.481Z,1.10
2019-04-26T01:03:57.615Z,1.30
2019-04-26T01:04:57.746Z,1.20
2019-04-26T01:06:00.237Z,1.20
2019-04-26T01:06:58.024Z,1.30
2019-04-26T01:07:58.155Z,1.10
2019-04-26T01:08:58.358Z,1.30
2019-04-26T01:09:58.454Z,1.30
2019-04-26T01:10:58.582Z,1.30
2019-04-26T01:11:58.714Z,1.10
2019-04-26T01:12:58.843Z,1.00
2019-04-26T01:13:58.958Z,1.10
2019-04-26T01:14:59.093Z,1.10
2019-04-26T01:15:59.228Z,1.20
2019-04-26T01:16:59.441Z,1.10
2019-04-26T01:17:59.479Z,1.00
2019-04-26T01:18:59.609Z,1.10
2019-04-26T01:19:59.735Z,1.20
2019-04-26T01:20:59.893Z,1.10
2019-04-26T01:22:00.013Z,1.20
2019-04-26T01:23:00.150Z,1.20
2019-04-26T01:24:00.300Z,1.10
2019-04-26T01:25:00.430Z,1.20
2019-04-26T01:26:00.563Z,1.20
2019-04-26T01:27:00.692Z,1.10
2019-04-26T01:28:00.856Z,1.10
2019-04-26T01:29:01.098Z,1.00
2019-04-26T01:30:01.100Z,1.00
2019-04-26T01:31:01.232Z,1.20
2019-04-26T01:32:01.388Z,1.40
2019-04-26T01:33:01.514Z,1.20
2019-04-26T01:34:01.643Z,1.30
2019-04-26T01:35:01.765Z,1.00
2019-04-26T01:36:12.424Z,1.20
2019-04-26T01:37:02.027Z,1.10
2019-04-26T01:38:02.157Z,1.30
2019-04-26T01:39:02.298Z,1.10
2019-04-26T01:40:02.428Z,1.20
2019-04-26T01:41:02.577Z,1.40
2019-04-26T01:42:02.700Z,1.40
2019-04-26T01:43:02.844Z,1.20
2019-04-26T01:44:02.972Z,1.40
2019-04-26T01:45:03.115Z,1.30
2019-04-26T01:46:03.250Z,1.30
2019-04-26T01:47:03.403Z,1.60
2019-04-26T01:48:03.541Z,1.40
2019-04-26T01:49:03.670Z,1.40
2019-04-26T01:50:03.810Z,1.50
2019-04-26T01:51:03.954Z,1.50
2019-04-26T01:52:04.074Z,1.30
2019-04-26T01:53:04.193Z,1.20
2019-04-26T01:54:04.319Z,1.40
2019-04-26T01:55:04.466Z,1.40
2019-04-26T01:56:04.595Z,1.20
2019-04-26T01:57:04.728Z,1.20
2019-04-26T01:58:04.859Z,1.40
2019-04-26T01:59:05.047Z,1.50
2019-04-26T02:00:05.129Z,1.40
2019-04-26T02:01:05.308Z,1.30
2019-04-26T02:02:05.404Z,1.20
2019-04-26T02:03:05.545Z,1.50
2019-04-26T02:04:05.682Z,1.20
2019-04-26T02:05:05.819Z,1.30
2019-04-26T02:06:05.935Z,1.30
2019-04-26T02:07:06.099Z,1.40
2019-04-26T02:08:06.265Z,1.10
2019-04-26T02:09:06.400Z,1.30
2019-04-26T02:10:06.537Z,1.10
2019-04-26T02:11:06.683Z,1.20
2019-04-26T02:12:06.921Z,1.30
2019-04-26T02:13:06.921Z,1.30
2019-04-26T02:14:07.052Z,1.10
2019-04-26T02:15:07.214Z,1.30
2019-04-26T02:16:07.340Z,1.20
2019-04-26T02:17:07.475Z,1.20
2019-04-26T02:18:07.603Z,1.10
2019-04-26T02:19:07.746Z,1.30
2019-04-26T02:20:07.873Z,1.30
2019-04-26T02:21:08.007Z,1.30
2019-04-26T02:22:08.138Z,1.30
2019-04-26T02:23:08.289Z,1.40
2019-04-26T02:24:08.413Z,1.40
2019-04-26T02:25:08.548Z,1.50
2019-04-26T02:26:08.685Z,1.30
2019-04-26T02:27:08.817Z,1.50
2019-04-26T02:28:08.980Z,1.40
2019-04-26T02:29:09.120Z,1.40
2019-04-26T02:30:09.268Z,1.50
2019-04-26T02:31:09.393Z,1.90
2019-04-26T02:32:09.528Z,2.50
2019-04-26T02:33:09.655Z,1.80
2019-04-26T02:34:09.843Z,1.90
2019-04-26T02:35:09.941Z,1.70
2019-04-26T02:36:10.073Z,1.70
2019-04-26T02:37:10.225Z,1.50
2019-04-26T02:38:10.351Z,1.40
2019-04-26T02:39:10.484Z,1.40
2019-04-26T02:40:10.610Z,1.30
2019-04-26T02:41:10.747Z,1.30
2019-04-26T02:42:10.876Z,1.30
2019-04-26T02:43:11.009Z,1.20
2019-04-26T02:44:11.156Z,1.30
2019-04-26T02:45:11.287Z,1.60
2019-04-26T02:46:11.417Z,1.30
2019-04-26T02:47:11.545Z,1.30
2019-04-26T02:48:11.704Z,1.50
2019-04-26T02:49:11.839Z,1.30
2019-04-26T02:50:11.967Z,1.50
2019-04-26T02:51:12.099Z,1.90
2019-04-26T02:52:12.234Z,1.40
2019-04-26T02:53:12.364Z,1.50
2019-04-26T02:54:12.495Z,1.60
2019-04-26T02:55:12.633Z,1.60
2019-04-26T02:56:12.761Z,1.60
2019-04-26T02:57:12.890Z,1.50
2019-04-26T02:58:13.006Z,1.40
2019-04-26T02:59:13.161Z,1.70
2019-04-26T03:00:13.316Z,1.60
2019-04-26T03:01:13.414Z,1.70
2019-04-26T03:02:13.545Z,1.30
2019-04-26T03:03:13.686Z,1.50
2019-04-26T03:04:13.813Z,1.40
2019-04-26T03:05:13.945Z,1.50
2019-04-26T03:06:14.088Z,1.60
2019-04-26T03:07:14.214Z,1.50
2019-04-26T03:08:14.371Z,1.70
2019-04-26T03:09:14.487Z,1.50
2019-04-26T03:10:14.614Z,1.60
2019-04-26T03:11:17.235Z,1.60
2019-04-26T03:12:14.876Z,1.60
2019-04-26T03:13:15.020Z,1.60
2019-04-26T03:14:15.148Z,1.70
2019-04-26T03:15:15.292Z,1.70
2019-04-26T03:16:15.406Z,1.90
2019-04-26T03:17:15.543Z,1.70
2019-04-26T03:18:15.672Z,1.70
2019-04-26T03:19:15.801Z,1.90
2019-04-26T03:20:15.934Z,1.70
2019-04-26T03:21:16.062Z,1.40
2019-04-26T03:22:16.192Z,1.40
2019-04-26T03:23:16.334Z,1.20
2019-04-26T03:24:16.457Z,1.30
2019-04-26T03:25:16.599Z,1.40
2019-04-26T03:26:16.726Z,1.50
2019-04-26T03:27:16.864Z,1.50
2019-04-26T03:28:16.982Z,1.70
2019-04-26T03:29:17.112Z,1.50
2019-04-26T03:30:21.133Z,1.50
2019-04-26T03:31:17.627Z,4.50
2019-04-26T03:32:17.590Z,5.30
2019-04-26T03:33:17.728Z,6.50
2019-04-26T03:34:17.986Z,4.70
2019-04-26T03:35:17.916Z,3.30
2019-04-26T03:36:18.036Z,2.50
2019-04-26T03:37:20.605Z,3.30
2019-04-26T03:38:18.309Z,3.80
2019-04-26T03:39:18.455Z,2.30
2019-04-26T03:40:18.583Z,2.10
2019-04-26T03:41:18.706Z,2.30
2019-04-26T03:42:18.884Z,3.40
2019-04-26T03:43:19.007Z,5.10
2019-04-26T03:44:19.140Z,4.00
2019-04-26T03:45:19.259Z,2.90
2019-04-26T03:46:19.394Z,2.10
2019-04-26T03:47:19.526Z,2.40
2019-04-26T03:48:19.648Z,2.20
2019-04-26T03:49:19.863Z,2.20
2019-04-26T03:50:19.941Z,2.10
2019-04-26T03:51:20.086Z,1.60
2019-04-26T03:52:20.197Z,1.50
2019-04-26T03:53:20.325Z,1.50
2019-04-26T03:54:20.448Z,1.60
2019-04-26T03:55:20.576Z,1.40
2019-04-26T03:56:20.702Z,1.80
2019-04-26T03:57:20.829Z,1.60
2019-04-26T03:58:20.984Z,1.80
2019-04-26T03:59:21.099Z,1.50
2019-04-26T04:00:21.226Z,1.30
2019-04-26T04:01:21.376Z,1.50
2019-04-26T04:02:21.517Z,2.00
2019-04-26T04:03:21.645Z,2.00
2019-04-26T04:04:21.777Z,2.10
2019-04-26T04:05:21.942Z,1.70
2019-04-26T04:06:22.071Z,2.20
2019-04-26T04:07:36.281Z,2.50
2019-04-26T04:08:22.332Z,2.30
2019-04-26T04:09:22.496Z,2.60
2019-04-26T04:10:22.605Z,2.80
2019-04-26T04:11:22.753Z,2.40
2019-04-26T04:12:23.105Z,2.10
2019-04-26T04:13:22.991Z,2.30
2019-04-26T04:14:23.275Z,1.90
2019-04-26T04:15:23.286Z,1.90
2019-04-26T04:16:23.394Z,1.80
2019-04-26T04:17:23.527Z,1.80
2019-04-26T04:18:23.664Z,1.90
2019-04-26T04:19:23.792Z,1.80
2019-04-26T04:20:23.919Z,1.80
2019-04-26T04:21:24.079Z,1.70
2019-04-26T04:22:24.291Z,1.80
2019-04-26T04:23:24.272Z,1.70
2019-04-26T04:24:24.399Z,1.90
2019-04-26T04:25:24.556Z,1.80
2019-04-26T04:26:24.684Z,1.90
2019-04-26T04:27:24.838Z,1.90
2019-04-26T04:28:24.946Z,1.60
2019-04-26T04:29:39.100Z,1.90
2019-04-26T04:30:25.213Z,2.30
2019-04-26T04:31:25.349Z,2.90
2019-04-26T04:32:25.478Z,3.00
2019-04-26T04:33:25.611Z,2.70
2019-04-26T04:34:25.741Z,4.00
2019-04-26T04:35:25.882Z,4.50
2019-04-26T04:36:26.013Z,5.50
2019-04-26T04:37:26.162Z,4.60
2019-04-26T04:38:26.287Z,4.40
2019-04-26T04:39:26.421Z,4.20
2019-04-26T04:40:26.550Z,4.10
2019-04-26T04:41:26.717Z,4.50
2019-04-26T04:42:26.841Z,4.10
2019-04-26T04:43:27.094Z,3.50
2019-04-26T04:44:27.109Z,3.50
2019-04-26T04:45:27.256Z,3.70
2019-04-26T04:46:27.391Z,3.20
2019-04-26T04:47:31.155Z,3.20
2019-04-26T04:48:27.647Z,3.50
2019-04-26T04:49:27.807Z,4.10
2019-04-26T04:50:27.928Z,4.10
2019-04-26T04:51:28.050Z,3.90
2019-04-26T04:52:28.189Z,3.40
2019-04-26T04:53:28.316Z,2.80
2019-04-26T04:54:28.448Z,2.20
2019-04-26T04:55:28.579Z,2.40
2019-04-26T04:56:28.725Z,2.10
2019-04-26T04:57:28.854Z,2.30
2019-04-26T04:58:28.985Z,2.10
2019-04-26T04:59:29.128Z,2.30
2019-04-26T05:00:29.257Z,2.10
2019-04-26T05:01:31.890Z,2.70
2019-04-26T05:02:29.563Z,2.00
2019-04-26T05:03:29.686Z,2.00
2019-04-26T05:04:29.817Z,1.70
2019-04-26T05:05:29.951Z,2.00
2019-04-26T05:06:30.091Z,1.70
2019-04-26T05:07:30.223Z,1.80
2019-04-26T05:08:30.352Z,1.50
2019-04-26T05:09:30.531Z,1.40
2019-04-26T05:10:30.663Z,1.50
2019-04-26T05:11:30.799Z,1.60
2019-04-26T05:12:30.928Z,1.90
2019-04-26T05:13:31.079Z,1.80
2019-04-26T05:14:31.214Z,2.10
2019-04-26T05:15:31.349Z,1.90
2019-04-26T05:16:33.042Z,2.00
2019-04-26T05:17:31.631Z,1.90
2019-04-26T05:18:31.764Z,2.10
2019-04-26T05:19:31.895Z,1.90
2019-04-26T05:20:32.057Z,1.90
2019-04-26T05:21:32.189Z,2.40
2019-04-26T05:22:32.316Z,2.40
2019-04-26T05:23:32.450Z,2.30
2019-04-26T05:24:32.595Z,2.90
2019-04-26T05:25:32.722Z,2.70
2019-04-26T05:26:32.853Z,3.00
2019-04-26T05:27:32.988Z,2.20
2019-04-26T05:28:33.156Z,2.20
2019-04-26T05:29:33.278Z,2.30
2019-04-26T05:30:33.408Z,2.10
2019-04-26T05:31:33.530Z,2.10
2019-04-26T05:32:33.696Z,2.10
2019-04-26T05:33:33.818Z,1.90
2019-04-26T05:34:33.954Z,1.90
2019-04-26T05:35:34.094Z,2.10
2019-04-26T05:36:34.261Z,2.60
2019-04-26T05:37:37.028Z,3.40
2019-04-26T05:38:34.451Z,3.00
2019-04-26T05:39:34.610Z,2.40
2019-04-26T05:40:34.737Z,2.30
2019-04-26T05:41:34.859Z,3.70
2019-04-26T05:42:34.987Z,3.70
2019-04-26T05:43:35.113Z,2.90
2019-04-26T05:44:35.262Z,2.10
2019-04-26T05:45:35.399Z,3.10
2019-04-26T05:46:35.522Z,8.50
2019-04-26T05:47:35.651Z,2.30
2019-04-26T05:48:35.791Z,8.80
2019-04-26T05:49:35.921Z,4.20
2019-04-26T05:50:36.049Z,2.00
2019-04-26T05:51:36.182Z,1.70
2019-04-26T05:52:36.314Z,2.10
2019-04-26T05:53:36.438Z,2.10
2019-04-26T05:54:36.569Z,2.20
2019-04-26T05:55:36.704Z,2.50
2019-04-26T05:56:36.853Z,2.50
2019-04-26T05:57:36.999Z,2.40
2019-04-26T05:58:37.112Z,2.30
2019-04-26T05:59:37.268Z,1.80
2019-04-26T06:00:37.419Z,2.00
2019-04-26T06:01:37.563Z,1.90
2019-04-26T06:02:37.678Z,1.90
2019-04-26T06:03:37.825Z,2.00
2019-04-26T06:04:38.058Z,2.00
2019-04-26T06:05:38.072Z,2.00
2019-04-26T06:06:38.200Z,1.80
2019-04-26T06:07:38.349Z,1.70
2019-04-26T06:08:38.496Z,5.50
2019-04-26T06:09:38.633Z,7.90
2019-04-26T06:10:38.771Z,7.70
2019-04-26T06:11:38.925Z,3.60
2019-04-26T06:12:39.054Z,2.50
2019-04-26T06:13:39.187Z,5.10
2019-04-26T06:14:39.309Z,5.60
2019-04-26T06:15:39.471Z,6.50
2019-04-26T06:16:39.598Z,4.50
2019-04-26T06:17:39.756Z,3.00
2019-04-26T06:18:39.893Z,3.50
2019-04-26T06:19:40.019Z,2.60
2019-04-26T06:20:40.174Z,2.10
2019-04-26T06:21:40.304Z,3.30
2019-04-26T06:22:40.437Z,2.70
2019-04-26T06:23:40.571Z,3.10
2019-04-26T06:24:40.704Z,2.40
2019-04-26T06:25:40.831Z,2.50
2019-04-26T06:26:40.957Z,2.20
2019-04-26T06:27:41.086Z,3.60
2019-04-26T06:28:41.251Z,5.20
2019-04-26T06:29:41.382Z,4.70
2019-04-26T06:30:45.648Z,3.90
2019-04-26T06:31:41.636Z,4.20
2019-04-26T06:32:41.909Z,4.00
2019-04-26T06:33:41.918Z,5.30
2019-04-26T06:34:42.054Z,3.70
2019-04-26T06:35:42.188Z,3.50
2019-04-26T06:36:42.333Z,4.70
2019-04-26T06:37:42.485Z,4.30
2019-04-26T06:38:43.928Z,3.60
2019-04-26T06:39:42.727Z,3.40
2019-04-26T06:40:42.879Z,2.80
2019-04-26T06:41:43.019Z,2.80
2019-04-26T06:42:43.144Z,2.90
2019-04-26T06:43:43.282Z,2.70
2019-04-26T06:44:43.424Z,3.20
2019-04-26T06:45:43.549Z,2.90
2019-04-26T06:46:43.688Z,2.60
2019-04-26T06:47:43.815Z,2.20
2019-04-26T06:48:43.970Z,3.40
2019-04-26T06:49:44.097Z,2.30
2019-04-26T06:50:44.226Z,2.90
2019-04-26T06:51:44.363Z,2.80
2019-04-26T06:52:44.510Z,2.80
2019-04-26T06:53:44.643Z,2.60
2019-04-26T06:54:44.783Z,3.90
2019-04-26T06:55:44.920Z,4.10
2019-04-26T06:56:45.043Z,8.00
2019-04-26T06:57:45.176Z,4.80
2019-04-26T06:58:45.312Z,2.90
2019-04-26T06:59:45.462Z,2.70
2019-04-26T07:00:45.593Z,2.70
2019-04-26T07:01:45.716Z,3.00
2019-04-26T07:02:45.847Z,2.70
2019-04-26T07:03:45.997Z,2.40
2019-04-26T07:04:46.134Z,2.40
2019-04-26T07:05:46.268Z,2.70
2019-04-26T07:06:46.395Z,2.60
2019-04-26T07:07:46.579Z,2.70
2019-04-26T07:08:56.683Z,3.10
2019-04-26T07:09:46.800Z,2.60
2019-04-26T07:10:46.967Z,2.40
2019-04-26T07:11:47.097Z,2.70
2019-04-26T07:12:47.212Z,3.10
2019-04-26T07:13:47.338Z,2.50
2019-04-26T07:14:47.475Z,2.30
2019-04-26T07:15:47.647Z,3.00
2019-04-26T07:16:47.773Z,2.40
2019-04-26T07:17:47.904Z,2.70
2019-04-26T07:18:48.038Z,2.60
2019-04-26T07:19:48.181Z,2.70
2019-04-26T07:20:48.314Z,2.80
2019-04-26T07:21:48.449Z,2.80
2019-04-26T07:22:48.607Z,2.40
2019-04-26T07:23:48.738Z,2.80
2019-04-26T07:24:48.869Z,2.40
2019-04-26T07:25:49.033Z,2.20
2019-04-26T07:26:49.163Z,2.40
2019-04-26T07:27:49.328Z,2.20
2019-04-26T07:28:49.436Z,2.30
2019-04-26T07:29:49.575Z,2.20
2019-04-26T07:30:49.713Z,2.40
2019-04-26T07:31:49.825Z,2.30
2019-04-26T07:32:49.951Z,2.60
2019-04-26T07:33:50.111Z,2.60
2019-04-26T07:34:50.330Z,2.30
2019-04-26T07:35:50.356Z,2.40
2019-04-26T07:36:50.477Z,2.60
2019-04-26T07:37:50.628Z,2.40
2019-04-26T07:38:50.764Z,2.80
2019-04-26T07:39:50.891Z,2.20
2019-04-26T07:40:51.036Z,3.20
2019-04-26T07:41:51.484Z,3.20
2019-04-26T07:42:51.299Z,2.60
2019-04-26T07:43:51.443Z,2.90
2019-04-26T07:44:51.597Z,2.80
2019-04-26T07:45:51.738Z,2.60
2019-04-26T07:46:51.875Z,2.60
2019-04-26T07:47:52.000Z,2.30
2019-04-26T07:48:52.126Z,2.70
2019-04-26T07:49:52.252Z,2.50
2019-04-26T07:50:52.385Z,2.40
2019-04-26T07:51:52.525Z,2.80
2019-04-26T07:52:52.679Z,2.90
2019-04-26T07:53:52.803Z,3.10
2019-04-26T07:54:52.939Z,2.50
2019-04-26T07:55:53.072Z,2.50
2019-04-26T07:56:53.223Z,2.30
2019-04-26T07:57:53.357Z,2.60
2019-04-26T07:58:53.477Z,2.20
2019-04-26T07:59:53.606Z,2.70
2019-04-26T08:00:53.771Z,2.60
2019-04-26T08:01:53.927Z,3.00
2019-04-26T08:02:54.007Z,3.00
2019-04-26T08:03:54.142Z,2.60
2019-04-26T08:04:54.277Z,2.50
2019-04-26T08:05:54.540Z,2.40
2019-04-26T08:06:54.547Z,2.90
2019-04-26T08:07:54.671Z,2.50
2019-04-26T08:08:54.835Z,2.60
2019-04-26T08:09:59.680Z,2.60
2019-04-26T08:10:55.075Z,2.50
2019-04-26T08:11:55.203Z,2.40
2019-04-26T08:12:55.346Z,2.70
2019-04-26T08:13:55.509Z,2.20
2019-04-26T08:14:55.636Z,2.30
2019-04-26T08:15:55.816Z,2.70
2019-04-26T08:16:55.925Z,2.50
2019-04-26T08:17:56.168Z,2.50
2019-04-26T08:18:56.159Z,2.50
2019-04-26T08:19:57.495Z,2.60
2019-04-26T08:20:56.458Z,3.00
2019-04-26T08:22:11.163Z,3.20
2019-04-26T08:22:56.689Z,2.90
2019-04-26T08:23:57.833Z,3.30
2019-04-26T08:24:56.989Z,2.70
2019-04-26T08:25:57.115Z,2.70
2019-04-26T08:27:08.236Z,2.90
2019-04-26T08:27:57.375Z,2.80
2019-04-26T08:29:00.556Z,2.80
2019-04-26T08:29:57.769Z,3.20
2019-04-26T08:30:57.763Z,3.20
2019-04-26T08:31:58.832Z,3.00
2019-04-26T08:32:58.052Z,2.80
2019-04-26T08:33:58.178Z,3.00
2019-04-26T08:34:58.319Z,3.10
2019-04-26T08:35:58.455Z,2.70
2019-04-26T08:37:01.803Z,3.20
2019-04-26T08:37:58.741Z,3.20
2019-04-26T08:38:58.867Z,3.10
2019-04-26T08:39:59.445Z,2.90
2019-04-26T08:41:00.355Z,3.20
2019-04-26T08:41:59.376Z,3.30
2019-04-26T08:42:59.382Z,3.00
2019-04-26T08:43:59.817Z,3.50
2019-04-26T08:44:59.652Z,3.30
2019-04-26T08:46:03.233Z,3.20
2019-04-26T08:46:59.922Z,3.10
2019-04-26T08:48:00.037Z,3.20
2019-04-26T08:49:02.094Z,3.10
2019-04-26T08:50:00.334Z,3.10
2019-04-26T08:51:00.478Z,3.10
2019-04-26T08:52:00.605Z,3.10
2019-04-26T08:53:00.742Z,3.00
2019-04-26T08:54:00.871Z,3.00
2019-04-26T08:55:01.005Z,3.10
2019-04-26T08:56:01.128Z,3.30
2019-04-26T08:57:01.278Z,3.20
2019-04-26T08:58:01.385Z,3.30
2019-04-26T08:59:01.517Z,3.30
2019-04-26T09:00:01.643Z,3.50
2019-04-26T09:01:01.777Z,3.50
2019-04-26T09:02:01.908Z,3.20
2019-04-26T09:03:11.273Z,3.30
2019-04-26T09:04:02.159Z,3.30
2019-04-26T09:05:02.304Z,3.40
2019-04-26T09:06:02.441Z,3.40
2019-04-26T09:07:02.572Z,3.20
2019-04-26T09:08:03.917Z,3.10
2019-04-26T09:09:02.935Z,3.20
2019-04-26T09:10:10.609Z,3.30
2019-04-26T09:11:03.073Z,3.20
2019-04-26T09:12:03.909Z,3.40
2019-04-26T09:13:03.346Z,3.30
2019-04-26T09:14:03.474Z,4.00
2019-04-26T09:15:03.641Z,4.40
2019-04-26T09:16:03.825Z,3.60
2019-04-26T09:17:03.894Z,3.90
2019-04-26T09:18:06.070Z,3.60
2019-04-26T09:19:04.204Z,3.50
2019-04-26T09:20:07.852Z,3.70
2019-04-26T09:21:04.451Z,3.70
2019-04-26T09:22:12.750Z,3.60
2019-04-26T09:23:05.042Z,3.90
2019-04-26T09:24:04.860Z,3.70
2019-04-26T09:25:04.994Z,3.90
2019-04-26T09:26:08.674Z,3.60
2019-04-26T09:27:05.272Z,4.00
2019-04-26T09:28:05.414Z,3.70
2019-04-26T09:29:05.545Z,3.70
2019-04-26T09:30:06.389Z,4.00
2019-04-26T09:31:05.821Z,3.90
2019-04-26T09:32:05.960Z,3.90
2019-04-26T09:33:06.119Z,4.40
2019-04-26T09:34:09.984Z,4.00
2019-04-26T09:35:06.354Z,4.20
2019-04-26T09:36:06.498Z,4.60
2019-04-26T09:37:06.624Z,4.20
2019-04-26T09:38:06.761Z,4.20
2019-04-26T09:39:08.294Z,4.50
2019-04-26T09:40:10.382Z,4.10
2019-04-26T09:41:07.173Z,4.40
2019-04-26T09:42:09.713Z,4.30
2019-04-26T09:43:10.376Z,4.20
2019-04-26T09:44:07.593Z,4.00
2019-04-26T09:45:07.712Z,4.20
2019-04-26T09:46:07.858Z,4.10
2019-04-26T09:47:08.013Z,4.40
2019-04-26T09:48:08.144Z,4.30
2019-04-26T09:49:08.546Z,4.30
2019-04-26T09:50:11.254Z,4.20
2019-04-26T09:51:08.566Z,4.40
2019-04-26T09:52:08.697Z,4.30
2019-04-26T09:53:08.829Z,4.20
2019-04-26T09:54:08.953Z,4.30
2019-04-26T09:55:09.079Z,4.70
2019-04-26T09:56:09.214Z,4.60
2019-04-26T09:57:09.352Z,4.80
2019-04-26T09:58:09.478Z,4.70
2019-04-26T09:59:09.616Z,4.40
2019-04-26T10:00:10.357Z,4.70
2019-04-26T10:01:09.866Z,4.60
2019-04-26T10:02:10.007Z,4.70
2019-04-26T10:03:10.816Z,4.40
2019-04-26T10:04:10.285Z,4.60
2019-04-26T10:05:12.168Z,4.90
2019-04-26T10:06:10.536Z,4.90
2019-04-26T10:07:10.668Z,5.00
2019-04-26T10:08:13.017Z,5.00
2019-04-26T10:09:10.936Z,5.10
2019-04-26T10:10:22.286Z,5.20
2019-04-26T10:11:11.200Z,5.00
2019-04-26T10:12:11.320Z,5.20
2019-04-26T10:13:11.469Z,5.20
2019-04-26T10:14:11.604Z,5.00
2019-04-26T10:15:11.736Z,5.00
2019-04-26T10:16:11.885Z,5.80
2019-04-26T10:17:15.555Z,5.20
2019-04-26T10:18:12.142Z,5.30
2019-04-26T10:19:12.270Z,5.20
2019-04-26T10:20:12.406Z,5.40
2019-04-26T10:21:12.569Z,5.70
2019-04-26T10:22:12.686Z,5.10
2019-04-26T10:23:12.825Z,5.10
2019-04-26T10:24:12.964Z,5.30
2019-04-26T10:25:16.504Z,5.00
2019-04-26T10:26:13.234Z,5.70
2019-04-26T10:27:13.368Z,5.50
2019-04-26T10:28:16.026Z,5.20
2019-04-26T10:29:13.643Z,5.50
2019-04-26T10:30:13.771Z,5.40
2019-04-26T10:31:17.201Z,5.70
2019-04-26T10:32:14.050Z,5.70
2019-04-26T10:33:14.192Z,5.60
2019-04-26T10:34:14.314Z,5.40
2019-04-26T10:35:17.512Z,6.20
2019-04-26T10:36:14.596Z,6.30
2019-04-26T10:37:14.717Z,6.60
2019-04-26T10:38:14.861Z,6.70
2019-04-26T10:39:14.990Z,6.90
2019-04-26T10:40:15.138Z,6.40
2019-04-26T10:41:15.268Z,6.10
2019-04-26T10:42:15.400Z,6.70
2019-04-26T10:43:15.524Z,5.90
2019-04-26T10:44:15.706Z,6.50
2019-04-26T10:45:16.323Z,6.70
2019-04-26T10:46:15.962Z,6.40
2019-04-26T10:47:16.111Z,6.70
2019-04-26T10:48:16.304Z,6.40
2019-04-26T10:49:16.427Z,6.70
2019-04-26T10:50:16.560Z,6.90
2019-04-26T10:51:16.708Z,6.50
2019-04-26T10:52:17.073Z,7.30
2019-04-26T10:53:16.962Z,6.70
2019-04-26T10:54:17.093Z,7.10
2019-04-26T10:55:17.530Z,7.90
2019-04-26T10:56:20.254Z,7.50
2019-04-26T10:57:17.492Z,8.20
2019-04-26T10:58:17.632Z,7.80
2019-04-26T10:59:17.774Z,8.80
2019-04-26T11:00:18.962Z,8.60
2019-04-26T11:01:18.038Z,8.00
2019-04-26T11:02:18.157Z,8.00
2019-04-26T11:03:18.343Z,8.00
2019-04-26T11:04:18.416Z,7.70
2019-04-26T11:05:19.479Z,7.90
2019-04-26T11:06:18.688Z,8.50
2019-04-26T11:07:18.832Z,7.60
2019-04-26T11:08:18.966Z,7.50
2019-04-26T11:09:19.100Z,7.60
2019-04-26T11:10:19.220Z,7.60
2019-04-26T11:11:19.356Z,7.80
2019-04-26T11:12:19.492Z,7.10
2019-04-26T11:13:19.617Z,8.20
2019-04-26T11:14:22.597Z,9.30
2019-04-26T11:15:19.912Z,8.60
2019-04-26T11:16:20.033Z,8.10
2019-04-26T11:17:20.167Z,7.40
2019-04-26T11:18:27.366Z,7.70
2019-04-26T11:19:20.469Z,7.90
2019-04-26T11:20:20.598Z,8.30
2019-04-26T11:21:22.287Z,8.60
2019-04-26T11:22:29.086Z,8.20
2019-04-26T11:23:21.006Z,7.50
2019-04-26T11:24:21.145Z,8.00
2019-04-26T11:25:24.727Z,7.60
2019-04-26T11:26:21.434Z,7.40
2019-04-26T11:27:21.578Z,6.70
2019-04-26T11:28:22.965Z,8.00
2019-04-26T11:29:24.958Z,8.10
2019-04-26T11:30:22.076Z,9.40
2019-04-26T11:31:23.444Z,9.00
2019-04-26T11:32:22.244Z,8.60
2019-04-26T11:33:22.389Z,8.70
2019-04-26T11:34:23.691Z,8.30
2019-04-26T11:35:22.637Z,8.20
2019-04-26T11:36:22.774Z,7.90
2019-04-26T11:37:22.932Z,8.00
2019-04-26T11:38:26.900Z,8.30
2019-04-26T11:39:23.199Z,8.30
2019-04-26T11:40:23.310Z,8.30
2019-04-26T11:41:23.499Z,7.80
2019-04-26T11:42:23.597Z,8.00
2019-04-26T11:43:23.727Z,7.80
2019-04-26T11:44:27.562Z,8.10
2019-04-26T11:45:24.004Z,8.40
2019-04-26T11:46:29.209Z,8.40
2019-04-26T11:47:24.291Z,8.80
2019-04-26T11:48:25.414Z,8.20
2019-04-26T11:49:24.583Z,7.70
2019-04-26T11:50:24.707Z,8.20
2019-04-26T11:51:27.595Z,8.10
2019-04-26T11:52:24.970Z,8.20
2019-04-26T11:53:25.128Z,8.00
2019-04-26T11:54:25.255Z,8.30
2019-04-26T11:55:29.613Z,7.60
2019-04-26T11:56:25.523Z,8.90
2019-04-26T11:57:25.670Z,7.90
2019-04-26T11:58:25.812Z,7.30
2019-04-26T11:59:27.106Z,7.20
2019-04-26T12:00:27.520Z,7.80
2019-04-26T12:01:26.217Z,8.40
2019-04-26T12:02:26.334Z,7.90
2019-04-26T12:03:26.464Z,8.40
2019-04-26T12:04:26.589Z,8.30
2019-04-26T12:05:26.738Z,7.30
2019-04-26T12:06:26.872Z,7.60
2019-04-26T12:07:27.005Z,7.80
2019-04-26T12:08:27.135Z,8.80
2019-04-26T12:09:27.285Z,8.10
2019-04-26T12:10:27.424Z,7.80
2019-04-26T12:11:34.144Z,7.00
2019-04-26T12:12:27.715Z,7.10
2019-04-26T12:13:27.940Z,6.70
2019-04-26T12:14:29.454Z,6.40
2019-04-26T12:15:30.419Z,5.90
2019-04-26T12:16:28.215Z,5.70
2019-04-26T12:17:31.252Z,6.00
2019-04-26T12:18:28.531Z,6.20
2019-04-26T12:19:28.655Z,5.90
2019-04-26T12:20:28.744Z,5.80
2019-04-26T12:21:30.496Z,5.40
2019-04-26T12:22:29.008Z,6.00
2019-04-26T12:23:29.154Z,5.90
2019-04-26T12:24:30.749Z,6.00
2019-04-26T12:25:31.070Z,5.60
2019-04-26T12:26:42.129Z,4.70
2019-04-26T12:27:30.706Z,4.20
2019-04-26T12:28:29.844Z,4.60
2019-04-26T12:29:29.993Z,5.30
2019-04-26T12:30:30.136Z,5.10
2019-04-26T12:31:30.255Z,5.10
2019-04-26T12:32:30.402Z,4.40
2019-04-26T12:33:30.525Z,4.80
2019-04-26T12:34:30.666Z,5.10
2019-04-26T12:35:30.786Z,5.40
2019-04-26T12:36:30.932Z,5.30
2019-04-26T12:37:31.091Z,5.20
2019-04-26T12:38:31.220Z,5.40
2019-04-26T12:39:32.345Z,5.50
2019-04-26T12:40:31.477Z,6.40
2019-04-26T12:41:40.502Z,6.20
2019-04-26T12:42:31.800Z,6.40
2019-04-26T12:43:31.940Z,7.10
2019-04-26T12:44:32.297Z,5.70
2019-04-26T12:45:32.229Z,6.60
2019-04-26T12:46:32.374Z,5.80
2019-04-26T12:47:34.646Z,5.80
2019-04-26T12:48:32.647Z,5.20
2019-04-26T12:49:35.315Z,5.80
2019-04-26T12:50:35.219Z,5.00
2019-04-26T12:51:33.049Z,5.30
2019-04-26T12:52:33.171Z,5.30
2019-04-26T12:53:33.317Z,5.30
2019-04-26T12:54:33.437Z,5.30
2019-04-26T12:55:33.582Z,5.60
2019-04-26T12:56:33.712Z,5.60
2019-04-26T12:57:36.584Z,5.80
2019-04-26T12:58:33.966Z,6.10
2019-04-26T12:59:43.835Z,5.90
2019-04-26T13:00:37.654Z,5.50
2019-04-26T13:01:34.494Z,5.60
2019-04-26T13:02:34.496Z,5.70
2019-04-26T13:03:34.613Z,5.70
2019-04-26T13:04:36.202Z,4.80
2019-04-26T13:05:34.897Z,5.10
2019-04-26T13:06:35.031Z,4.70
2019-04-26T13:07:35.179Z,4.60
2019-04-26T13:08:35.325Z,5.20
2019-04-26T13:09:35.452Z,5.30
2019-04-26T13:10:36.879Z,5.70
2019-04-26T13:11:43.197Z,5.70
2019-04-26T13:12:35.890Z,6.00
2019-04-26T13:13:36.025Z,5.60
2019-04-26T13:14:38.745Z,5.50
2019-04-26T13:15:36.310Z,5.10
2019-04-26T13:16:36.436Z,5.00
2019-04-26T13:17:37.435Z,4.90
2019-04-26T13:18:36.694Z,5.10
2019-04-26T13:19:36.850Z,5.30
2019-04-26T13:20:37.005Z,5.80